Time;durP1;ratioP1;P1;durP2;ratioP2;P2;SDS_P1;SDS_P2;PMS_P1;PMS_P2;Temp;Humidity;BMP_temperature;BMP_pressure;BME280_temperature;BME280_humidity;BME280_pressure;Samples;Min_cycle;Max_cycle;Signal;HPM_P1;HPM_P2
2022/06/08 00:01:50;;;;;;;1999.90;999.90;;;;;;;16.10;100.00;69342.97;5056260;28;20226;-63
2022/06/08 00:04:17;;;;;;;1999.90;999.90;;;;;;;16.06;100.00;69338.44;5072365;28;20313;-63
2022/06/08 00:06:43;;;;;;;1999.90;999.90;;;;;;;16.02;100.00;69334.47;5055899;28;20213;-64
2022/06/08 00:09:09;;;;;;;1999.90;999.90;;;;;;;15.98;100.00;69330.81;5056328;28;20189;-64
2022/06/08 00:11:34;;;;;;;1999.90;999.90;;;;;;;15.95;100.00;69326.91;5056171;28;20211;-63
2022/06/08 00:14:00;;;;;;;1999.90;999.90;;;;;;;15.91;100.00;69322.56;5055742;28;20208;-63
2022/06/08 00:16:25;;;;;;;1999.90;999.90;;;;;;;15.88;100.00;69318.53;5055656;28;20221;-69
2022/06/08 00:18:51;;;;;;;1999.90;999.90;;;;;;;15.84;100.00;69314.13;5055674;28;20194;-75
2022/06/08 00:21:16;;;;;;;1999.90;999.90;;;;;;;15.81;100.00;69310.19;5055983;28;20181;-53
2022/06/08 00:23:43;;;;;;;1999.90;999.90;;;;;;;15.78;100.00;69306.91;5055591;28;20189;-54
2022/06/08 00:26:09;;;;;;;1999.90;999.90;;;;;;;15.74;100.00;69303.28;5055508;28;20208;-56
2022/06/08 00:28:34;;;;;;;1999.90;999.90;;;;;;;15.71;100.00;69299.56;5055198;28;20223;-55
2022/06/08 00:31:00;;;;;;;1999.90;999.90;;;;;;;15.68;100.00;69295.63;5055958;28;20181;-56
2022/06/08 00:33:25;;;;;;;1999.90;999.90;;;;;;;15.65;100.00;69292.63;5072993;28;20181;-55
2022/06/08 00:35:51;;;;;;;1999.90;999.90;;;;;;;15.62;100.00;69289.56;5055299;28;20185;-70
2022/06/08 00:38:16;;;;;;;1999.90;999.90;;;;;;;15.59;100.00;69286.97;5055947;28;20185;-63
2022/06/08 00:40:50;;;;;;;1999.90;999.90;;;;;;;15.57;100.00;69284.31;5055238;28;20177;-63
2022/06/08 00:43:16;;;;;;;1999.90;999.90;;;;;;;15.55;100.00;69282.25;5055431;28;20199;-63
2022/06/08 00:45:43;;;;;;;1999.90;999.90;;;;;;;15.53;100.00;69280.03;5039431;28;20228;-63
2022/06/08 00:48:08;;;;;;;1999.90;999.90;;;;;;;15.51;100.00;69277.63;5071773;28;20185;-63
2022/06/08 00:50:40;;;;;;;1999.90;999.90;;;;;;;15.49;100.00;69275.94;5055306;28;20208;-63
2022/06/08 00:53:07;;;;;;;1999.90;999.90;;;;;;;15.47;100.00;69274.00;5055211;28;20193;-61
2022/06/08 00:55:36;;;;;;;1999.90;999.90;;;;;;;15.46;100.00;69272.31;5057431;28;20245;-54
2022/06/08 00:58:19;;;;;;;1999.90;999.90;;;;;;;15.45;100.00;69270.75;5058863;28;20208;-55
2022/06/08 01:00:45;;;;;;;1999.90;999.90;;;;;;;15.44;100.00;69270.00;5075832;28;20310;-56
2022/06/08 01:03:13;;;;;;;1999.90;999.90;;;;;;;15.42;100.00;69268.78;5075619;28;20291;-55
2022/06/08 01:05:52;;;;;;;1999.90;999.90;;;;;;;15.41;100.00;69267.28;5075433;28;20304;-53
2022/06/08 01:08:39;;;;;;;1999.90;999.90;;;;;;;15.40;100.00;69266.25;5058551;28;20189;-55
2022/06/08 01:11:10;;;;;;;1999.90;999.90;;;;;;;15.38;100.00;69264.22;5058805;28;20246;-55
2022/06/08 01:13:38;;;;;;;1999.90;999.90;;;;;;;15.37;100.00;69262.84;5058564;28;20192;-75
2022/06/08 01:16:06;;;;;;;1999.90;999.90;;;;;;;15.35;100.00;69261.34;5058581;28;20185;-60
2022/06/08 01:18:32;;;;;;;1999.90;999.90;;;;;;;15.34;100.00;69259.94;5058292;28;20280;-61
2022/06/08 01:21:20;;;;;;;1999.90;999.90;;;;;;;15.33;100.00;69258.72;5075524;28;20220;-61
2022/06/08 01:23:55;;;;;;;1999.90;999.90;;;;;;;15.32;100.00;69257.25;5058274;28;20193;-61
2022/06/08 01:26:29;;;;;;;1999.90;999.90;;;;;;;15.31;100.00;69256.00;5058559;28;20197;-61
2022/06/08 01:29:20;;;;;;;1999.90;999.90;;;;;;;15.30;100.00;69255.16;5058553;28;20234;-61
2022/06/08 01:31:48;;;;;;;1999.90;999.90;;;;;;;15.30;100.00;69254.72;5058174;28;20189;-60
2022/06/08 01:34:25;;;;;;;1999.90;999.90;;;;;;;15.29;100.00;69254.50;5057845;28;20181;-46
2022/06/08 01:37:11;;;;;;;1999.90;999.90;;;;;;;15.29;100.00;69253.75;5074595;28;20192;-45
2022/06/08 01:39:55;;;;;;;1999.90;999.90;;;;;;;15.28;100.00;69253.03;5075156;28;20181;-47
2022/06/08 01:42:58;;;;;;;1999.90;999.90;;;;;;;15.28;100.00;69252.88;5074660;28;20190;-48
2022/06/08 01:45:52;;;;;;;1999.90;999.90;;;;;;;15.28;100.00;69253.22;5057520;28;20216;-50
2022/06/08 01:48:26;;;;;;;1999.90;999.90;;;;;;;15.29;100.00;69253.31;5040470;28;20200;-62
2022/06/08 01:50:55;;;;;;;1999.90;999.90;;;;;;;15.29;100.00;69253.16;5058292;28;20188;-64
2022/06/08 01:53:30;;;;;;;1999.90;999.90;;;;;;;15.29;100.00;69253.41;5058212;28;20287;-64
2022/06/08 01:56:33;;;;;;;1999.90;999.90;;;;;;;15.29;100.00;69253.06;5058118;28;20274;-63
2022/06/08 01:59:11;;;;;;;1999.90;999.90;;;;;;;15.29;100.00;69253.34;5058150;28;20195;-64
2022/06/08 02:01:43;;;;;;;1999.90;999.90;;;;;;;15.29;100.00;69253.41;5057411;28;20227;-64
2022/06/08 02:04:08;;;;;;;1999.90;999.90;;;;;;;15.28;100.00;69252.88;5075408;28;20212;-63
2022/06/08 02:06:44;;;;;;;1999.90;999.90;;;;;;;15.29;100.00;69253.31;5056781;28;20185;-68
2022/06/08 02:09:28;;;;;;;1999.90;999.90;;;;;;;15.29;100.00;69253.50;5058163;28;20246;-62
2022/06/08 02:12:01;;;;;;;1999.90;999.90;;;;;;;15.29;100.00;69253.59;5057407;28;20199;-61
2022/06/08 02:14:34;;;;;;;1999.90;999.90;;;;;;;15.29;100.00;69254.22;5058155;28;20294;-61
2022/06/08 02:17:04;;;;;;;1999.90;999.90;;;;;;;15.29;100.00;69254.50;5073994;28;20221;-62
2022/06/08 02:19:32;;;;;;;1999.90;999.90;;;;;;;15.29;100.00;69254.31;5073999;28;20185;-63
2022/06/08 02:22:15;;;;;;;1999.90;999.90;;;;;;;15.29;100.00;69254.16;5057992;28;20199;-61
2022/06/08 02:24:48;;;;;;;1999.90;999.90;;;;;;;15.29;100.00;69253.59;5057599;28;20217;-47
2022/06/08 02:27:23;;;;;;;1999.90;999.90;;;;;;;15.29;100.00;69253.31;5073851;28;20189;-51
2022/06/08 02:30:12;;;;;;;1999.90;999.90;;;;;;;15.28;100.00;69252.59;5074096;28;20196;-62
2022/06/08 02:35:57;;;;;;;1999.90;999.90;;;;;;;15.28;100.00;69252.19;5075256;28;20196;-61
2022/06/08 02:38:30;;;;;;;1999.90;999.90;;;;;;;15.27;100.00;69251.75;5057008;28;20188;-61
2022/06/08 02:40:57;;;;;;;1999.90;999.90;;;;;;;15.27;100.00;69251.31;5056889;28;20188;-61
2022/06/08 02:43:36;;;;;;;1999.90;999.90;;;;;;;15.27;100.00;69251.31;5057316;28;20207;-61
2022/06/08 02:46:26;;;;;;;1999.90;999.90;;;;;;;15.27;100.00;69251.16;5073331;28;20239;-60
2022/06/08 02:48:52;;;;;;;1999.90;999.90;;;;;;;15.27;100.00;69250.69;5074748;28;20241;-61
2022/06/08 02:51:27;;;;;;;1999.90;999.90;;;;;;;15.27;100.00;69250.88;5056957;28;20196;-61
2022/06/08 02:53:58;;;;;;;1999.90;999.90;;;;;;;15.26;100.00;69250.47;5056829;28;20196;-61
2022/06/08 02:56:38;;;;;;;1999.90;999.90;;;;;;;15.26;100.00;69250.69;5073422;28;20196;-61
2022/06/08 02:59:34;;;;;;;1999.90;999.90;;;;;;;15.26;100.00;69250.78;5073843;28;20185;-61
2022/06/08 03:02:22;;;;;;;1999.90;999.90;;;;;;;15.25;100.00;69250.09;5056949;28;20189;-55
2022/06/08 03:05:00;;;;;;;1999.90;999.90;;;;;;;15.25;100.00;69249.38;5056913;28;20216;-68
2022/06/08 03:07:31;;;;;;;1999.90;999.90;;;;;;;15.24;100.00;69249.00;5057336;28;20195;-68
2022/06/08 03:10:01;;;;;;;1999.90;999.90;;;;;;;15.23;100.00;69247.91;5056698;28;20284;-68
2022/06/08 03:12:35;;;;;;;1999.90;999.90;;;;;;;15.22;100.00;69247.56;5073199;28;20189;-68
2022/06/08 03:15:02;;;;;;;1999.90;999.90;;;;;;;15.22;100.00;69246.91;5056571;28;20199;-68
2022/06/08 03:17:32;;;;;;;1999.90;999.90;;;;;;;15.21;100.00;69246.06;5056315;28;20211;-67
2022/06/08 03:19:58;;;;;;;1999.90;999.90;;;;;;;15.20;100.00;69245.41;5073602;28;20197;-76
2022/06/08 03:22:23;;;;;;;1999.90;999.90;;;;;;;15.20;100.00;69244.50;5073110;28;20201;-76
2022/06/08 03:24:49;;;;;;;1999.90;999.90;;;;;;;15.19;100.00;69244.47;5056229;28;20255;-60
2022/06/08 03:27:14;;;;;;;1999.90;999.90;;;;;;;15.19;100.00;69245.16;5056394;28;20188;-61
2022/06/08 03:29:40;;;;;;;1999.90;999.90;;;;;;;15.19;100.00;69245.50;5056355;28;20189;-61
2022/06/08 03:32:06;;;;;;;1999.90;999.90;;;;;;;15.19;100.00;69245.50;5056781;28;20224;-60
2022/06/08 03:34:31;;;;;;;1999.90;999.90;;;;;;;15.20;100.00;69245.72;5072844;28;20185;-61
2022/06/08 03:36:57;;;;;;;1999.90;999.90;;;;;;;15.20;100.00;69246.56;5056385;28;20288;-60
2022/06/08 03:39:23;;;;;;;1999.90;999.90;;;;;;;15.21;100.00;69246.75;5056020;28;20190;-54
2022/06/08 03:41:48;;;;;;;1999.90;999.90;;;;;;;15.22;100.00;69247.59;5056271;28;20196;-62
2022/06/08 03:44:13;;;;;;;1999.90;999.90;;;;;;;15.23;100.00;69248.81;5056197;28;20182;-63
2022/06/08 03:46:57;;;;;;;1999.90;999.90;;;;;;;15.24;100.00;69250.31;5055809;28;20217;-63
2022/06/08 03:49:24;;;;;;;1999.90;999.90;;;;;;;15.26;100.00;69252.69;5073208;28;20185;-62
2022/06/08 03:51:53;;;;;;;1999.90;999.90;;;;;;;15.29;100.00;69255.38;5056014;28;20181;-62
2022/06/08 03:54:23;;;;;;;1999.90;999.90;;;;;;;15.31;100.00;69258.44;5055774;28;20228;-63
2022/06/08 03:56:53;;;;;;;1999.90;999.90;;;;;;;15.34;100.00;69262.00;5072722;28;20197;-47
2022/06/08 03:59:18;;;;;;;1999.90;999.90;;;;;;;15.37;100.00;69265.63;5072468;28;20200;-61
2022/06/08 04:01:44;;;;;;;1999.90;999.90;;;;;;;15.41;100.00;69270.47;5055832;28;20188;-73
2022/06/08 04:04:11;;;;;;;1999.90;999.90;;;;;;;15.46;100.00;69276.19;5055853;28;20217;-74
2022/06/08 04:06:37;;;;;;;1999.90;999.90;;;;;;;15.53;100.00;69284.66;5055954;28;20188;-73
2022/06/08 04:09:03;;;;;;;1999.90;999.90;;;;;;;15.63;100.00;69295.03;5055620;28;20189;-74
2022/06/08 04:11:28;;;;;;;1999.90;999.90;;;;;;;15.75;100.00;69308.34;5056278;28;20242;-75
2022/06/08 04:13:54;;;;;;;1999.90;999.90;;;;;;;15.89;100.00;69325.41;5056369;28;20236;-75
2022/06/08 04:16:19;;;;;;;1999.90;999.90;;;;;;;16.06;100.00;69344.47;5073211;28;20201;-62
2022/06/08 04:18:45;;;;;;;1999.90;999.90;;;;;;;16.26;100.00;69366.66;5055475;28;20266;-62
2022/06/08 04:21:13;;;;;;;1999.90;999.90;;;;;;;16.46;100.00;69389.09;5055338;28;20249;-61
2022/06/08 04:23:41;;;;;;;1999.90;999.90;;;;;;;16.67;100.00;69412.94;5055602;28;20274;-61
2022/06/08 04:26:06;;;;;;;1999.90;999.90;;;;;;;16.90;100.00;69438.06;5071978;28;20204;-61
2022/06/08 04:28:33;;;;;;;1999.90;999.90;;;;;;;17.13;100.00;69464.16;5055472;28;20208;-62
2022/06/08 04:30:58;;;;;;;1999.90;999.90;;;;;;;17.36;100.00;69491.16;5058546;28;20256;-62
2022/06/08 04:33:24;;;;;;;1999.90;999.90;;;;;;;17.59;100.00;69517.09;5075756;28;20192;-63
2022/06/08 04:35:50;;;;;;;1999.90;999.90;;;;;;;17.81;100.00;69541.72;5059023;28;20188;-75
2022/06/08 04:38:16;;;;;;;1999.90;999.90;;;;;;;18.03;100.00;69566.63;5058796;28;20189;-63
2022/06/08 04:40:42;;;;;;;1999.90;999.90;;;;;;;18.24;100.00;69590.22;5058861;28;20192;-62
2022/06/08 04:43:08;;;;;;;1999.90;999.90;;;;;;;18.45;100.00;69614.88;5058832;28;20193;-63
2022/06/08 04:45:35;;;;;;;1999.90;999.90;;;;;;;18.68;100.00;69640.44;5059028;28;20209;-62
2022/06/08 04:48:02;;;;;;;1999.90;999.90;;;;;;;18.92;100.00;69667.97;5058428;28;20284;-62
2022/06/08 04:50:27;;;;;;;1999.90;999.90;;;;;;;19.17;100.00;69695.88;5075850;28;20196;-63
2022/06/08 04:52:53;;;;;;;1999.90;999.90;;;;;;;19.41;100.00;69724.00;5058741;28;20181;-62
2022/06/08 04:55:19;;;;;;;1999.90;999.90;;;;;;;19.66;100.00;69751.78;5058514;28;20181;-50
2022/06/08 04:57:44;;;;;;;1999.90;999.90;;;;;;;19.88;100.00;69777.25;5058745;28;20200;-51
2022/06/08 05:00:14;;;;;;;1999.90;999.90;;;;;;;20.10;100.00;69802.78;5058810;28;20181;-48
2022/06/08 05:02:43;;;;;;;1999.90;999.90;;;;;;;20.33;100.00;69828.84;5075167;28;20200;-47
2022/06/08 05:05:11;;;;;;;1999.90;999.90;;;;;;;20.57;100.00;69856.06;5058550;28;20220;-46
2022/06/08 05:07:36;;;;;;;1999.90;999.90;;;;;;;20.81;100.00;69883.13;5075107;28;20184;-48
2022/06/08 05:10:02;;;;;;;1999.90;999.90;;;;;;;21.04;100.00;69909.91;5057918;28;20185;-56
2022/06/08 05:12:28;;;;;;;1999.90;999.90;;;;;;;21.29;100.00;69937.47;5058502;28;20227;-73
2022/06/08 05:14:53;;;;;;;1999.90;999.90;;;;;;;21.51;100.00;69962.38;5058286;28;20213;-62
2022/06/08 05:17:18;;;;;;;1999.90;999.90;;;;;;;21.73;100.00;69988.38;5075893;28;20266;-64
2022/06/08 05:19:45;;;;;;;1999.90;999.90;;;;;;;21.95;100.00;70013.00;5058321;28;20187;-63
2022/06/08 05:22:10;;;;;;;1999.90;999.90;;;;;;;22.18;100.00;70039.50;5058468;28;20189;-63
2022/06/08 05:24:36;;;;;;;1999.90;999.90;;;;;;;22.41;100.00;70066.22;5058040;28;20300;-62
2022/06/08 05:27:01;;;;;;;1999.90;999.90;;;;;;;22.65;100.00;70093.03;5058030;28;20209;-62
2022/06/08 05:29:26;;;;;;;1999.90;999.90;;;;;;;22.89;95.57;70120.63;5058004;28;20185;-55
2022/06/08 05:31:52;;;;;;;1999.90;999.90;;;;;;;23.12;93.33;70146.56;5058255;28;20193;-62
2022/06/08 05:34:17;;;;;;;1999.90;999.90;;;;;;;23.37;87.62;70174.78;5057911;28;20228;-64
2022/06/08 05:36:43;;;;;;;1999.90;999.90;;;;;;;23.61;83.36;70203.16;5074842;28;20204;-64
2022/06/08 05:39:08;;;;;;;1999.90;999.90;;;;;;;23.88;81.79;70233.38;5057562;28;20181;-62
2022/06/08 05:41:33;;;;;;;1999.90;999.90;;;;;;;24.15;76.50;70264.22;5057472;28;20205;-63
2022/06/08 05:44:00;;;;;;;1999.90;999.90;;;;;;;24.37;78.36;70289.38;5057888;28;20189;-63
2022/06/08 05:46:25;;;;;;;1999.90;999.90;;;;;;;24.60;76.00;70316.06;5074161;28;20215;-56
2022/06/08 05:48:50;;;;;;;1999.90;999.90;;;;;;;24.87;72.77;70347.00;5057573;28;20288;-61
2022/06/08 05:51:16;;;;;;;1999.90;999.90;;;;;;;25.13;70.48;70376.81;5057530;28;20189;-56
2022/06/08 05:53:41;;;;;;;1999.90;999.90;;;;;;;25.38;69.58;70404.50;5058173;28;20181;-54
2022/06/08 05:56:07;;;;;;;1999.90;999.90;;;;;;;25.59;68.77;70429.09;5058078;28;20211;-56
2022/06/08 05:58:32;;;;;;;1999.90;999.90;;;;;;;25.81;64.85;70453.81;5057595;28;20212;-56
2022/06/08 06:00:58;;;;;;;1999.90;999.90;;;;;;;25.99;65.41;70475.16;5057438;28;20176;-55
2022/06/08 06:03:23;;;;;;;1999.90;999.90;;;;;;;26.16;67.96;70493.81;5057445;28;20299;-55
2022/06/08 06:05:49;;;;;;;1999.90;999.90;;;;;;;26.37;64.57;70517.75;5057425;28;20216;-56
2022/06/08 06:08:14;;;;;;;1999.90;999.90;;;;;;;26.58;61.62;70541.63;5057275;28;20192;-61
2022/06/08 06:10:42;;;;;;;1999.90;999.90;;;;;;;26.79;59.06;70566.09;5057267;28;20177;-61
2022/06/08 06:13:08;;;;;;;1999.90;999.90;;;;;;;27.04;56.15;70594.53;5057209;28;20222;-60
2022/06/08 06:15:34;;;;;;;1999.90;999.90;;;;;;;27.24;58.50;70616.63;5057626;28;20266;-60
2022/06/08 06:18:00;;;;;;;1999.90;999.90;;;;;;;27.41;55.44;70636.00;5057170;28;20386;-61
2022/06/08 06:20:26;;;;;;;1999.90;999.90;;;;;;;27.57;55.89;70654.59;5057189;28;20283;-61
2022/06/08 06:22:52;;;;;;;1999.90;999.90;;;;;;;27.69;59.20;70668.50;5075090;28;20290;-59
2022/06/08 06:25:17;;;;;;;1999.90;999.90;;;;;;;27.79;60.30;70679.28;5057000;28;20201;-61
2022/06/08 06:27:43;;;;;;;1999.90;999.90;;;;;;;27.95;55.64;70697.75;5057345;28;20184;-69
2022/06/08 06:30:10;;;;;;;1999.90;999.90;;;;;;;28.16;51.22;70721.84;5057641;28;20252;-71
2022/06/08 06:32:37;;;;;;;1999.90;999.90;;;;;;;28.33;50.97;70741.56;5056894;28;20177;-70
2022/06/08 06:35:04;;;;;;;1999.90;999.90;;;;;;;28.52;50.94;70762.41;5057013;28;20223;-69
2022/06/08 06:37:29;;;;;;;1999.90;999.90;;;;;;;28.68;49.61;70780.53;5073576;28;20231;-68
2022/06/08 06:39:55;;;;;;;1999.90;999.90;;;;;;;28.84;47.93;70799.06;5057307;28;20185;-70
2022/06/08 06:42:30;;;;;;;1999.90;999.90;;;;;;;29.04;46.14;70821.44;5056795;28;20185;-57
2022/06/08 06:44:55;;;;;;;1999.90;999.90;;;;;;;29.28;43.47;70849.31;5057001;28;20239;-62
2022/06/08 06:47:21;;;;;;;1999.90;999.90;;;;;;;29.47;43.94;70870.72;5056830;28;20292;-63
2022/06/08 06:49:47;;;;;;;1999.90;999.90;;;;;;;29.62;46.20;70887.31;5056882;28;20181;-64
2022/06/08 06:52:14;;;;;;;1999.90;999.90;;;;;;;29.80;42.82;70906.97;5072803;28;20181;-64
2022/06/08 06:54:40;;;;;;;1999.90;999.90;;;;;;;29.94;44.75;70923.34;5056755;28;20193;-64
2022/06/08 06:57:06;;;;;;;1999.90;999.90;;;;;;;30.10;42.87;70942.22;5073655;28;20213;-64
2022/06/08 06:59:31;;;;;;;1999.90;999.90;;;;;;;30.21;43.16;70954.38;5056702;28;20189;-64
2022/06/08 07:01:57;;;;;;;1999.90;999.90;;;;;;;30.30;44.36;70965.41;5056504;28;20201;-67
2022/06/08 07:04:22;;;;;;;1999.90;999.90;;;;;;;30.37;46.19;70973.09;5056478;28;20181;-64
2022/06/08 07:06:47;;;;;;;1999.90;999.90;;;;;;;30.53;42.60;70991.16;5056734;28;20219;-64
2022/06/08 07:09:13;;;;;;;1999.90;999.90;;;;;;;30.70;41.04;71010.44;5056705;28;20193;-64
2022/06/08 07:11:41;;;;;;;1999.90;999.90;;;;;;;30.92;38.79;71035.53;5056396;28;20169;-63
2022/06/08 07:14:11;;;;;;;1999.90;999.90;;;;;;;31.11;35.85;71057.72;5056677;28;20173;-64
2022/06/08 07:16:36;;;;;;;1999.90;999.90;;;;;;;31.18;39.31;71065.75;5056798;28;20284;-63
2022/06/08 07:19:02;;;;;;;1999.90;999.90;;;;;;;31.36;39.04;71085.38;5056352;28;20234;-64
2022/06/08 07:21:28;;;;;;;1999.90;999.90;;;;;;;31.50;37.60;71100.66;5073678;28;20178;-58
2022/06/08 07:23:54;;;;;;;1999.90;999.90;;;;;;;31.61;39.04;71113.50;5056168;28;20183;-57
2022/06/08 07:26:24;;;;;;;1999.90;999.90;;;;;;;31.78;36.91;71133.38;5055893;28;20343;-53
2022/06/08 07:28:50;;;;;;;1999.90;999.90;;;;;;;32.01;34.52;71159.50;5056229;28;20185;-56
2022/06/08 07:31:15;;;;;;;1999.90;999.90;;;;;;;32.27;32.42;71188.72;5056281;28;20193;-54
2022/06/08 07:33:41;;;;;;;1999.90;999.90;;;;;;;32.50;33.32;71215.25;5056386;28;20189;-56
2022/06/08 07:36:06;;;;;;;1999.90;999.90;;;;;;;32.74;32.59;71242.25;5056136;28;20192;-56
2022/06/08 07:38:32;;;;;;;1999.90;999.90;;;;;;;32.90;32.82;71261.31;5055643;28;20177;-66
2022/06/08 07:40:58;;;;;;;1999.90;999.90;;;;;;;33.03;33.92;71275.38;5056204;28;20185;-49
2022/06/08 07:43:24;;;;;;;1999.90;999.90;;;;;;;33.15;33.33;71289.28;5056238;28;20181;-46
2022/06/08 07:45:49;;;;;;;1999.90;999.90;;;;;;;33.27;33.72;71302.56;5055746;28;20235;-47
2022/06/08 07:50:59;;;;;;;1999.90;999.90;;;;;;;33.69;29.55;71350.34;5074275;28;20195;-44
2022/06/08 07:53:24;;;;;;;1999.90;999.90;;;;;;;33.80;29.95;71362.38;5056230;28;20272;-46
2022/06/08 07:55:50;;;;;;;1999.90;999.90;;;;;;;33.88;31.29;71371.31;5056133;28;20184;-45
2022/06/08 07:58:16;;;;;;;1999.90;999.90;;;;;;;33.92;33.04;71375.81;5055901;28;20188;-60
2022/06/08 08:00:46;;;;;;;1999.90;999.90;;;;;;;33.86;35.75;71369.09;5056194;28;20189;-61
2022/06/08 08:03:15;;;;;;;1999.90;999.90;;;;;;;33.67;40.00;71347.53;5055819;28;20200;-60
2022/06/08 08:05:42;;;;;;;1999.90;999.90;;;;;;;33.42;45.00;71318.47;5071762;28;20252;-60
2022/06/08 08:08:08;;;;;;;1999.90;999.90;;;;;;;33.20;47.02;71292.81;5072106;28;20220;-61
2022/06/08 08:10:33;;;;;;;1999.90;999.90;;;;;;;33.06;42.40;71276.50;5055947;28;20224;-60
2022/06/08 08:12:59;;;;;;;1999.90;999.90;;;;;;;32.90;43.32;71257.03;5055636;28;20189;-60
2022/06/08 08:15:25;;;;;;;1999.90;999.90;;;;;;;32.76;44.04;71240.09;5073256;28;20227;-59
2022/06/08 08:17:51;;;;;;;1999.90;999.90;;;;;;;32.73;38.45;71237.56;5072059;28;20220;-51
2022/06/08 08:20:18;;;;;;;1999.90;999.90;;;;;;;32.74;39.41;71238.06;5055631;28;20181;-54
2022/06/08 08:22:46;;;;;;;1999.90;999.90;;;;;;;32.84;35.76;71249.69;5055417;28;20188;-52
2022/06/08 08:25:15;;;;;;;1999.90;999.90;;;;;;;32.90;34.48;71256.44;5055436;28;20209;-54
2022/06/08 08:27:41;;;;;;;1999.90;999.90;;;;;;;33.02;33.43;71270.03;5072330;28;20185;-50
2022/06/08 08:30:07;;;;;;;1999.90;999.90;;;;;;;33.03;33.97;71271.72;5072154;28;20267;-53
2022/06/08 08:32:33;;;;;;;1999.90;999.90;;;;;;;33.06;35.34;71274.81;5071942;28;20177;-55
2022/06/08 08:34:58;;;;;;;1999.90;999.90;;;;;;;33.02;37.46;71270.25;5073552;28;20185;-52
2022/06/08 08:37:23;;;;;;;1999.90;999.90;;;;;;;33.01;37.30;71268.19;5055112;28;20177;-55
2022/06/08 08:39:49;;;;;;;1999.90;999.90;;;;;;;33.03;35.48;71270.00;5056127;28;20227;-53
2022/06/08 08:42:22;;;;;;;1999.90;999.90;;;;;;;33.04;35.36;71271.69;5055344;28;20203;-56
2022/06/08 08:45:05;;;;;;;1999.90;999.90;;;;;;;33.06;35.51;71273.75;5055683;28;20211;-54
2022/06/08 08:47:51;;;;;;;1999.90;999.90;;;;;;;33.10;35.50;71278.34;5055214;28;20177;-56
2022/06/08 08:50:32;;;;;;;1999.90;999.90;;;;;;;33.14;34.31;71283.13;5055616;28;20200;-61
2022/06/08 08:53:09;;;;;;;1999.90;999.90;;;;;;;33.10;36.95;71278.44;5071477;28;20197;-55
2022/06/08 08:55:49;;;;;;;1999.90;999.90;;;;;;;33.16;33.61;71285.19;5055651;28;20192;-72
2022/06/08 08:58:25;;;;;;;1999.90;999.90;;;;;;;33.12;33.47;71280.06;5055206;28;20189;-73
2022/06/08 09:00:56;;;;;;;1999.90;999.90;;;;;;;33.11;32.75;71279.13;5055236;28;20242;-71
2022/06/08 09:03:24;;;;;;;1999.90;999.90;;;;;;;33.14;32.67;71282.00;5072021;28;20214;-72
2022/06/08 09:05:52;;;;;;;1999.90;999.90;;;;;;;33.17;36.78;71284.72;5055044;28;20235;-74
2022/06/08 09:08:20;;;;;;;1999.90;999.90;;;;;;;33.20;32.87;71288.13;5071818;28;20185;-68
2022/06/08 09:10:46;;;;;;;1999.90;999.90;;;;;;;33.16;34.98;71283.72;5054481;28;20189;-67
2022/06/08 09:13:22;;;;;;;1999.90;999.90;;;;;;;33.15;33.96;71282.44;5055091;28;20181;-65
2022/06/08 09:15:57;;;;;;;1999.90;999.90;;;;;;;33.21;33.16;71288.50;5056104;28;20185;-65
2022/06/08 09:18:31;;;;;;;1999.90;999.90;;;;;;;33.29;31.85;71298.44;5058213;28;20243;-65
2022/06/08 09:20:58;;;;;;;1999.90;999.90;;;;;;;33.13;36.11;71279.88;5058608;28;20193;-63
2022/06/08 09:23:37;;;;;;;1999.90;999.90;;;;;;;33.05;34.87;71270.81;5058137;28;20276;-64
2022/06/08 09:26:13;;;;;;;1999.90;999.90;;;;;;;32.93;35.01;71255.84;5074886;28;20209;-64
2022/06/08 09:28:41;;;;;;;1999.90;999.90;;;;;;;32.88;34.15;71249.97;5058412;28;20173;-56
2022/06/08 09:31:23;;;;;;;1999.90;999.90;;;;;;;32.83;33.16;71244.34;5058091;28;20232;-57
2022/06/08 09:33:48;;;;;;;1999.90;999.90;;;;;;;32.83;31.14;71244.25;5058337;28;20242;-56
2022/06/08 09:36:27;;;;;;;1999.90;999.90;;;;;;;32.82;30.24;71243.34;5058339;28;20178;-56
2022/06/08 09:38:54;;;;;;;1999.90;999.90;;;;;;;32.90;28.17;71252.53;5057561;28;20197;-56
2022/06/08 09:41:42;;;;;;;1999.90;999.90;;;;;;;32.89;28.06;71250.53;5074327;28;20207;-57
2022/06/08 09:44:25;;;;;;;1999.90;999.90;;;;;;;32.84;30.06;71245.06;5074492;28;20182;-57
2022/06/08 09:52:59;;;;;;;1999.90;999.90;;;;;;;32.57;34.61;71214.13;5075969;28;20215;-64
2022/06/08 09:55:37;;;;;;;1999.90;999.90;;;;;;;32.35;35.94;71188.66;5057786;28;20187;-64
2022/06/08 09:58:30;;;;;;;1999.90;999.90;;;;;;;32.15;38.17;71165.69;5057562;28;20207;-64
2022/06/08 10:01:04;;;;;;;1999.90;999.90;;;;;;;32.09;32.98;71157.56;5075470;28;20211;-64
2022/06/08 10:03:39;;;;;;;1999.90;999.90;;;;;;;32.06;31.10;71154.66;5057954;28;20180;-66
2022/06/08 10:06:14;;;;;;;1999.90;999.90;;;;;;;32.05;33.85;71152.91;5057456;28;20212;-60
2022/06/08 10:08:57;;;;;;;1999.90;999.90;;;;;;;31.98;34.81;71145.25;5057522;28;20283;-66
2022/06/08 10:11:55;;;;;;;1999.90;999.90;;;;;;;31.99;35.61;71146.09;5074291;28;20184;-66
2022/06/08 10:14:30;;;;;;;1999.90;999.90;;;;;;;32.04;33.50;71152.09;5057353;28;20207;-65
2022/06/08 10:17:01;;;;;;;1999.90;999.90;;;;;;;32.08;32.77;71156.41;5057552;28;20223;-66
2022/06/08 10:19:34;;;;;;;1999.90;999.90;;;;;;;32.07;34.66;71154.72;5057504;28;20224;-66
2022/06/08 10:22:01;;;;;;;1999.90;999.90;;;;;;;32.05;32.47;71152.31;5057352;28;20193;-62
2022/06/08 10:24:45;;;;;;;1999.90;999.90;;;;;;;32.01;33.28;71148.25;5057383;28;20181;-50
2022/06/08 10:27:38;;;;;;;1999.90;999.90;;;;;;;32.00;33.77;71147.41;5056400;28;20185;-62
2022/06/08 10:30:20;;;;;;;1999.90;999.90;;;;;;;31.89;35.80;71134.50;5074433;28;20216;-60
2022/06/08 10:32:56;;;;;;;1999.90;999.90;;;;;;;31.70;37.55;71112.50;5057072;28;20177;-60
2022/06/08 10:35:46;;;;;;;1999.90;999.90;;;;;;;31.61;36.55;71101.09;5074208;28;20189;-61
2022/06/08 10:38:31;;;;;;;1999.90;999.90;;;;;;;31.61;35.46;71100.94;5074106;28;20179;-61
2022/06/08 10:40:56;;;;;;;1999.90;999.90;;;;;;;31.57;34.89;71097.09;5074091;28;20209;-44
2022/06/08 10:43:27;;;;;;;1999.90;999.90;;;;;;;31.46;37.29;71084.38;5056736;28;20177;-72
2022/06/08 10:46:02;;;;;;;1999.90;999.90;;;;;;;31.44;36.82;71081.50;5056753;28;20205;-44
2022/06/08 10:48:49;;;;;;;1999.90;999.90;;;;;;;31.45;36.48;71081.88;5056930;28;20188;-44
2022/06/08 10:51:15;;;;;;;1999.90;999.90;;;;;;;31.48;35.54;71085.59;5057011;28;20185;-49
2022/06/08 10:56:34;;;;;;;1999.90;999.90;;;;;;;31.41;35.92;71077.94;5075090;28;20231;-45
2022/06/08 10:59:03;;;;;;;1999.90;999.90;;;;;;;31.30;39.20;71065.50;5057503;28;20295;-53
2022/06/08 11:01:53;;;;;;;1999.90;999.90;;;;;;;31.13;41.02;71044.81;5056989;28;20192;-53
2022/06/08 11:04:31;;;;;;;1999.90;999.90;;;;;;;31.00;42.01;71030.97;5056899;28;20318;-54
2022/06/08 11:07:07;;;;;;;1999.90;999.90;;;;;;;30.94;40.14;71023.50;5056738;28;20193;-53
2022/06/08 11:09:32;;;;;;;1999.90;999.90;;;;;;;30.83;40.61;71010.44;5056909;28;20227;-53
2022/06/08 11:12:36;;;;;;;1999.90;999.90;;;;;;;30.62;44.79;70986.50;5057170;28;20185;-50
2022/06/08 11:15:28;;;;;;;1999.90;999.90;;;;;;;30.45;44.61;70966.06;5056856;28;20185;-51
2022/06/08 11:18:00;;;;;;;1999.90;999.90;;;;;;;30.28;46.79;70946.16;5056775;28;20212;-60
2022/06/08 11:20:42;;;;;;;1999.90;999.90;;;;;;;30.22;41.00;70938.59;5073161;28;20192;-64